sensor_id;sensor_type;location;lat;lon;timestamp;temperature;humidity
11647;DHT22;5880;52.342;9.662;2022-10-16T00:01:36;18.20;62.40
11647;DHT22;5880;52.342;9.662;2022-10-16T00:04:03;18.10;62.40
11647;DHT22;5880;52.342;9.662;2022-10-16T00:06:29;18.10;62.40
11647;DHT22;5880;52.342;9.662;2022-10-16T00:08:56;18.10;62.50
11647;DHT22;5880;52.342;9.662;2022-10-16T00:11:25;18.00;62.50
11647;DHT22;5880;52.342;9.662;2022-10-16T00:13:57;18.00;62.40
11647;DHT22;5880;52.342;9.662;2022-10-16T00:16:25;18.00;62.50
11647;DHT22;5880;52.342;9.662;2022-10-16T00:18:51;17.90;62.50
11647;DHT22;5880;52.342;9.662;2022-10-16T00:21:20;17.90;62.70
11647;DHT22;5880;52.342;9.662;2022-10-16T00:23:51;17.80;62.60
11647;DHT22;5880;52.342;9.662;2022-10-16T00:26:19;17.80;62.60
11647;DHT22;5880;52.342;9.662;2022-10-16T00:28:49;17.80;62.60
11647;DHT22;5880;52.342;9.662;2022-10-16T00:31:18;17.70;62.70
11647;DHT22;5880;52.342;9.662;2022-10-16T00:33:46;17.70;62.70
11647;DHT22;5880;52.342;9.662;2022-10-16T00:36:15;17.60;62.70
11647;DHT22;5880;52.342;9.662;2022-10-16T00:38:44;17.60;62.80
11647;DHT22;5880;52.342;9.662;2022-10-16T00:41:13;17.60;62.90
11647;DHT22;5880;52.342;9.662;2022-10-16T00:43:45;17.60;62.90
11647;DHT22;5880;52.342;9.662;2022-10-16T00:46:28;17.50;63.00
11647;DHT22;5880;52.342;9.662;2022-10-16T00:51:54;17.50;63.10
11647;DHT22;5880;52.342;9.662;2022-10-16T00:54:29;17.40;63.00
11647;DHT22;5880;52.342;9.662;2022-10-16T00:56:59;17.40;62.90
11647;DHT22;5880;52.342;9.662;2022-10-16T00:59:30;17.30;63.00
11647;DHT22;5880;52.342;9.662;2022-10-16T01:02:01;17.30;63.20
11647;DHT22;5880;52.342;9.662;2022-10-16T01:04:32;17.30;63.30
11647;DHT22;5880;52.342;9.662;2022-10-16T01:15:46;17.30;63.20
11647;DHT22;5880;52.342;9.662;2022-10-16T01:18:25;17.30;63.30
11647;DHT22;5880;52.342;9.662;2022-10-16T01:23:44;17.20;63.20
11647;DHT22;5880;52.342;9.662;2022-10-16T01:28:57;17.20;63.40
11647;DHT22;5880;52.342;9.662;2022-10-16T01:31:36;17.20;63.50
11647;DHT22;5880;52.342;9.662;2022-10-16T01:34:10;17.20;63.50
11647;DHT22;5880;52.342;9.662;2022-10-16T01:36:54;17.20;63.30
11647;DHT22;5880;52.342;9.662;2022-10-16T01:39:29;17.20;63.30
11647;DHT22;5880;52.342;9.662;2022-10-16T01:42:08;17.20;63.50
11647;DHT22;5880;52.342;9.662;2022-10-16T01:44:37;17.10;63.70
11647;DHT22;5880;52.342;9.662;2022-10-16T01:47:08;17.10;63.80
11647;DHT22;5880;52.342;9.662;2022-10-16T01:49:37;17.10;63.90
11647;DHT22;5880;52.342;9.662;2022-10-16T01:52:09;17.10;63.90
11647;DHT22;5880;52.342;9.662;2022-10-16T01:54:43;17.10;63.90
11647;DHT22;5880;52.342;9.662;2022-10-16T01:57:13;17.10;63.90
11647;DHT22;5880;52.342;9.662;2022-10-16T01:59:46;17.10;63.90
11647;DHT22;5880;52.342;9.662;2022-10-16T02:02:17;17.10;64.20
11647;DHT22;5880;52.342;9.662;2022-10-16T02:05:12;17.10;64.20
11647;DHT22;5880;52.342;9.662;2022-10-16T02:07:49;17.10;64.60
11647;DHT22;5880;52.342;9.662;2022-10-16T02:10:15;17.10;64.40
11647;DHT22;5880;52.342;9.662;2022-10-16T02:12:45;17.10;64.40
11647;DHT22;5880;52.342;9.662;2022-10-16T02:15:16;17.10;64.60
11647;DHT22;5880;52.342;9.662;2022-10-16T02:17:42;17.10;64.60
11647;DHT22;5880;52.342;9.662;2022-10-16T02:20:08;17.10;64.60
11647;DHT22;5880;52.342;9.662;2022-10-16T02:22:38;17.10;64.70
11647;DHT22;5880;52.342;9.662;2022-10-16T02:25:25;17.10;64.90
11647;DHT22;5880;52.342;9.662;2022-10-16T02:28:00;17.10;65.00
11647;DHT22;5880;52.342;9.662;2022-10-16T02:30:36;17.10;64.90
11647;DHT22;5880;52.342;9.662;2022-10-16T02:33:09;17.10;64.90
11647;DHT22;5880;52.342;9.662;2022-10-16T02:35:40;17.10;64.90
11647;DHT22;5880;52.342;9.662;2022-10-16T02:38:08;17.10;64.90
11647;DHT22;5880;52.342;9.662;2022-10-16T02:40:35;17.10;65.00
11647;DHT22;5880;52.342;9.662;2022-10-16T02:43:03;17.20;65.00
11647;DHT22;5880;52.342;9.662;2022-10-16T02:45:30;17.20;65.00
11647;DHT22;5880;52.342;9.662;2022-10-16T02:47:56;17.20;65.00
11647;DHT22;5880;52.342;9.662;2022-10-16T02:50:22;17.20;65.00
11647;DHT22;5880;52.342;9.662;2022-10-16T02:52:48;17.20;65.00
11647;DHT22;5880;52.342;9.662;2022-10-16T02:55:13;17.20;65.00
11647;DHT22;5880;52.342;9.662;2022-10-16T02:57:39;17.20;65.10
11647;DHT22;5880;52.342;9.662;2022-10-16T03:00:07;17.20;65.10
11647;DHT22;5880;52.342;9.662;2022-10-16T03:02:34;17.20;65.20
11647;DHT22;5880;52.342;9.662;2022-10-16T03:05:00;17.20;65.30
11647;DHT22;5880;52.342;9.662;2022-10-16T03:07:25;17.30;65.40
11647;DHT22;5880;52.342;9.662;2022-10-16T03:09:51;17.30;65.40
11647;DHT22;5880;52.342;9.662;2022-10-16T03:12:17;17.30;65.40
11647;DHT22;5880;52.342;9.662;2022-10-16T03:14:43;17.30;65.50
11647;DHT22;5880;52.342;9.662;2022-10-16T03:17:08;17.30;65.50
11647;DHT22;5880;52.342;9.662;2022-10-16T03:19:34;17.30;65.50
11647;DHT22;5880;52.342;9.662;2022-10-16T03:22:01;17.30;65.50
11647;DHT22;5880;52.342;9.662;2022-10-16T03:24:27;17.20;65.40
11647;DHT22;5880;52.342;9.662;2022-10-16T03:26:52;17.20;65.40
11647;DHT22;5880;52.342;9.662;2022-10-16T03:29:18;17.20;65.40
11647;DHT22;5880;52.342;9.662;2022-10-16T03:31:44;17.20;65.40
11647;DHT22;5880;52.342;9.662;2022-10-16T03:34:09;17.20;65.30
11647;DHT22;5880;52.342;9.662;2022-10-16T03:36:35;17.20;65.30
11647;DHT22;5880;52.342;9.662;2022-10-16T03:39:01;17.20;65.20
11647;DHT22;5880;52.342;9.662;2022-10-16T03:41:27;17.20;65.20
11647;DHT22;5880;52.342;9.662;2022-10-16T03:43:53;17.10;65.20
11647;DHT22;5880;52.342;9.662;2022-10-16T03:46:19;17.10;65.20
11647;DHT22;5880;52.342;9.662;2022-10-16T03:48:45;17.10;65.30
11647;DHT22;5880;52.342;9.662;2022-10-16T03:51:10;17.00;65.50
11647;DHT22;5880;52.342;9.662;2022-10-16T03:53:36;17.00;65.70
11647;DHT22;5880;52.342;9.662;2022-10-16T03:56:02;17.00;65.80
11647;DHT22;5880;52.342;9.662;2022-10-16T03:58:28;17.00;66.00
11647;DHT22;5880;52.342;9.662;2022-10-16T04:00:53;17.00;66.00
11647;DHT22;5880;52.342;9.662;2022-10-16T04:03:19;17.00;66.00
11647;DHT22;5880;52.342;9.662;2022-10-16T04:05:46;17.00;66.00
11647;DHT22;5880;52.342;9.662;2022-10-16T04:08:12;17.00;66.00
11647;DHT22;5880;52.342;9.662;2022-10-16T04:10:37;17.10;66.20
11647;DHT22;5880;52.342;9.662;2022-10-16T04:13:03;17.00;66.10
11647;DHT22;5880;52.342;9.662;2022-10-16T04:15:29;17.00;66.10
11647;DHT22;5880;52.342;9.662;2022-10-16T04:17:54;17.10;66.10
11647;DHT22;5880;52.342;9.662;2022-10-16T04:20:20;17.00;66.00
11647;DHT22;5880;52.342;9.662;2022-10-16T04:22:46;17.00;65.90
11647;DHT22;5880;52.342;9.662;2022-10-16T04:25:12;17.00;65.80
11647;DHT22;5880;52.342;9.662;2022-10-16T04:27:38;17.00;65.70
11647;DHT22;5880;52.342;9.662;2022-10-16T04:30:04;16.90;65.70
11647;DHT22;5880;52.342;9.662;2022-10-16T04:32:31;16.90;65.70
11647;DHT22;5880;52.342;9.662;2022-10-16T04:34:56;16.90;65.70
11647;DHT22;5880;52.342;9.662;2022-10-16T04:37:25;16.90;65.80
11647;DHT22;5880;52.342;9.662;2022-10-16T04:39:52;16.80;65.90
11647;DHT22;5880;52.342;9.662;2022-10-16T04:42:19;16.80;65.90
11647;DHT22;5880;52.342;9.662;2022-10-16T04:44:44;16.80;65.90
11647;DHT22;5880;52.342;9.662;2022-10-16T04:47:10;16.80;66.00
11647;DHT22;5880;52.342;9.662;2022-10-16T04:49:36;16.80;66.00
11647;DHT22;5880;52.342;9.662;2022-10-16T04:52:02;16.80;66.00
11647;DHT22;5880;52.342;9.662;2022-10-16T04:54:28;16.80;66.10
11647;DHT22;5880;52.342;9.662;2022-10-16T04:56:54;16.80;66.20
11647;DHT22;5880;52.342;9.662;2022-10-16T04:59:21;16.70;66.30
11647;DHT22;5880;52.342;9.662;2022-10-16T05:01:47;16.70;66.40
11647;DHT22;5880;52.342;9.662;2022-10-16T05:04:14;16.70;66.40
11647;DHT22;5880;52.342;9.662;2022-10-16T05:06:41;16.70;66.60
11647;DHT22;5880;52.342;9.662;2022-10-16T05:09:08;16.70;66.80
11647;DHT22;5880;52.342;9.662;2022-10-16T05:11:34;16.70;67.00
11647;DHT22;5880;52.342;9.662;2022-10-16T05:14:01;16.80;67.10
11647;DHT22;5880;52.342;9.662;2022-10-16T05:16:27;16.80;67.20
11647;DHT22;5880;52.342;9.662;2022-10-16T05:18:53;16.80;67.40
11647;DHT22;5880;52.342;9.662;2022-10-16T05:21:20;16.80;67.40
11647;DHT22;5880;52.342;9.662;2022-10-16T05:23:46;16.90;67.60
11647;DHT22;5880;52.342;9.662;2022-10-16T05:26:12;16.90;67.50
11647;DHT22;5880;52.342;9.662;2022-10-16T05:28:37;17.00;67.50
11647;DHT22;5880;52.342;9.662;2022-10-16T05:31:07;17.00;67.50
11647;DHT22;5880;52.342;9.662;2022-10-16T05:33:34;17.20;67.60
11647;DHT22;5880;52.342;9.662;2022-10-16T05:36:05;17.10;67.40
11647;DHT22;5880;52.342;9.662;2022-10-16T05:38:34;17.20;67.40
11647;DHT22;5880;52.342;9.662;2022-10-16T05:41:00;17.30;67.30
11647;DHT22;5880;52.342;9.662;2022-10-16T05:43:28;17.30;67.20
11647;DHT22;5880;52.342;9.662;2022-10-16T05:45:59;17.40;67.10
11647;DHT22;5880;52.342;9.662;2022-10-16T05:48:27;17.30;67.00
11647;DHT22;5880;52.342;9.662;2022-10-16T05:51:01;17.30;66.90
11647;DHT22;5880;52.342;9.662;2022-10-16T05:53:30;17.40;67.00
11647;DHT22;5880;52.342;9.662;2022-10-16T05:55:57;17.40;66.80
11647;DHT22;5880;52.342;9.662;2022-10-16T05:58:23;17.40;66.80
11647;DHT22;5880;52.342;9.662;2022-10-16T06:00:57;17.40;66.80
11647;DHT22;5880;52.342;9.662;2022-10-16T06:03:28;17.40;66.80
11647;DHT22;5880;52.342;9.662;2022-10-16T06:05:54;17.40;66.60
11647;DHT22;5880;52.342;9.662;2022-10-16T06:08:21;17.40;66.50
11647;DHT22;5880;52.342;9.662;2022-10-16T06:10:48;17.40;66.50
11647;DHT22;5880;52.342;9.662;2022-10-16T06:13:25;17.40;66.50
11647;DHT22;5880;52.342;9.662;2022-10-16T06:15:50;17.40;66.50
11647;DHT22;5880;52.342;9.662;2022-10-16T06:18:16;17.40;66.50
11647;DHT22;5880;52.342;9.662;2022-10-16T06:20:42;17.40;66.50
11647;DHT22;5880;52.342;9.662;2022-10-16T06:23:07;17.40;66.50
11647;DHT22;5880;52.342;9.662;2022-10-16T06:25:33;17.40;66.50
11647;DHT22;5880;52.342;9.662;2022-10-16T06:27:59;17.40;66.60
11647;DHT22;5880;52.342;9.662;2022-10-16T06:30:24;17.40;66.60
11647;DHT22;5880;52.342;9.662;2022-10-16T06:32:50;17.40;66.70
11647;DHT22;5880;52.342;9.662;2022-10-16T06:35:16;17.40;66.80
11647;DHT22;5880;52.342;9.662;2022-10-16T06:37:41;17.40;66.70
11647;DHT22;5880;52.342;9.662;2022-10-16T06:40:07;17.40;66.80
11647;DHT22;5880;52.342;9.662;2022-10-16T06:42:33;17.40;66.90
11647;DHT22;5880;52.342;9.662;2022-10-16T06:44:59;17.30;66.90
11647;DHT22;5880;52.342;9.662;2022-10-16T06:47:24;17.40;66.90
11647;DHT22;5880;52.342;9.662;2022-10-16T06:49:50;17.40;67.00
11647;DHT22;5880;52.342;9.662;2022-10-16T06:52:16;17.40;67.00
11647;DHT22;5880;52.342;9.662;2022-10-16T06:54:41;17.40;67.00
11647;DHT22;5880;52.342;9.662;2022-10-16T06:57:07;17.40;67.10
11647;DHT22;5880;52.342;9.662;2022-10-16T06:59:33;17.50;67.30
11647;DHT22;5880;52.342;9.662;2022-10-16T07:01:58;17.50;67.30
11647;DHT22;5880;52.342;9.662;2022-10-16T07:04:24;17.50;67.40
11647;DHT22;5880;52.342;9.662;2022-10-16T07:06:49;17.60;67.30
11647;DHT22;5880;52.342;9.662;2022-10-16T07:09:17;17.60;67.30
11647;DHT22;5880;52.342;9.662;2022-10-16T07:11:42;17.70;67.40
11647;DHT22;5880;52.342;9.662;2022-10-16T07:14:20;17.70;67.30
11647;DHT22;5880;52.342;9.662;2022-10-16T07:16:47;17.80;67.10
11647;DHT22;5880;52.342;9.662;2022-10-16T07:19:14;17.80;67.10
11647;DHT22;5880;52.342;9.662;2022-10-16T07:21:42;17.90;67.00
11647;DHT22;5880;52.342;9.662;2022-10-16T07:24:12;17.90;66.80
11647;DHT22;5880;52.342;9.662;2022-10-16T07:26:40;17.90;66.70
11647;DHT22;5880;52.342;9.662;2022-10-16T07:29:12;17.90;66.60
11647;DHT22;5880;52.342;9.662;2022-10-16T07:31:40;18.00;66.50
11647;DHT22;5880;52.342;9.662;2022-10-16T07:34:06;18.00;66.50
11647;DHT22;5880;52.342;9.662;2022-10-16T07:36:33;18.00;66.50
11647;DHT22;5880;52.342;9.662;2022-10-16T07:38:58;18.00;66.60
11647;DHT22;5880;52.342;9.662;2022-10-16T07:41:24;18.00;66.60
11647;DHT22;5880;52.342;9.662;2022-10-16T07:43:51;18.00;66.70
11647;DHT22;5880;52.342;9.662;2022-10-16T07:46:19;18.10;66.80
11647;DHT22;5880;52.342;9.662;2022-10-16T07:48:47;18.10;66.80
11647;DHT22;5880;52.342;9.662;2022-10-16T07:51:15;18.20;66.70
11647;DHT22;5880;52.342;9.662;2022-10-16T07:53:42;18.20;66.60
11647;DHT22;5880;52.342;9.662;2022-10-16T07:56:08;18.30;66.50
11647;DHT22;5880;52.342;9.662;2022-10-16T07:58:34;18.30;66.40
11647;DHT22;5880;52.342;9.662;2022-10-16T08:01:08;18.30;66.30
11647;DHT22;5880;52.342;9.662;2022-10-16T08:03:35;18.40;66.20
11647;DHT22;5880;52.342;9.662;2022-10-16T08:06:02;18.40;66.40
11647;DHT22;5880;52.342;9.662;2022-10-16T08:08:29;18.50;66.40
11647;DHT22;5880;52.342;9.662;2022-10-16T08:10:55;18.60;66.40
11647;DHT22;5880;52.342;9.662;2022-10-16T08:13:21;18.50;66.40
11647;DHT22;5880;52.342;9.662;2022-10-16T08:15:47;18.60;66.30
11647;DHT22;5880;52.342;9.662;2022-10-16T08:18:14;18.70;66.30
11647;DHT22;5880;52.342;9.662;2022-10-16T08:20:41;18.70;66.20
11647;DHT22;5880;52.342;9.662;2022-10-16T08:23:09;18.80;66.10
11647;DHT22;5880;52.342;9.662;2022-10-16T08:25:37;18.90;66.00
11647;DHT22;5880;52.342;9.662;2022-10-16T08:28:08;18.90;65.80
11647;DHT22;5880;52.342;9.662;2022-10-16T08:30:35;19.00;65.40
11647;DHT22;5880;52.342;9.662;2022-10-16T08:33:02;19.00;65.40
11647;DHT22;5880;52.342;9.662;2022-10-16T08:35:28;19.10;65.30
11647;DHT22;5880;52.342;9.662;2022-10-16T08:37:54;19.10;65.20
11647;DHT22;5880;52.342;9.662;2022-10-16T08:40:24;19.10;65.10
11647;DHT22;5880;52.342;9.662;2022-10-16T08:46:15;19.10;64.70
11647;DHT22;5880;52.342;9.662;2022-10-16T08:49:00;19.20;64.40
11647;DHT22;5880;52.342;9.662;2022-10-16T08:51:33;19.20;64.80
11647;DHT22;5880;52.342;9.662;2022-10-16T08:54:04;19.20;64.60
11647;DHT22;5880;52.342;9.662;2022-10-16T08:56:31;19.10;64.60
11647;DHT22;5880;52.342;9.662;2022-10-16T08:58:59;19.10;64.90
11647;DHT22;5880;52.342;9.662;2022-10-16T09:01:40;19.20;64.90
11647;DHT22;5880;52.342;9.662;2022-10-16T09:07:28;19.30;65.00
11647;DHT22;5880;52.342;9.662;2022-10-16T09:10:59;19.40;65.40
11647;DHT22;5880;52.342;9.662;2022-10-16T09:16:32;19.60;65.10
11647;DHT22;5880;52.342;9.662;2022-10-16T09:19:46;19.70;65.30
11647;DHT22;5880;52.342;9.662;2022-10-16T09:22:14;20.00;66.00
11647;DHT22;5880;52.342;9.662;2022-10-16T09:24:41;20.20;67.10
11647;DHT22;5880;52.342;9.662;2022-10-16T09:27:11;20.50;68.60
11647;DHT22;5880;52.342;9.662;2022-10-16T09:29:39;20.90;68.20
11647;DHT22;5880;52.342;9.662;2022-10-16T09:32:17;21.30;69.10
11647;DHT22;5880;52.342;9.662;2022-10-16T09:34:49;21.80;66.80
11647;DHT22;5880;52.342;9.662;2022-10-16T09:37:20;22.10;66.90
11647;DHT22;5880;52.342;9.662;2022-10-16T09:39:54;22.60;66.60
11647;DHT22;5880;52.342;9.662;2022-10-16T09:42:31;22.90;64.50
11647;DHT22;5880;52.342;9.662;2022-10-16T09:45:01;23.20;64.80
11647;DHT22;5880;52.342;9.662;2022-10-16T09:47:29;23.50;64.80
11647;DHT22;5880;52.342;9.662;2022-10-16T09:49:59;23.90;63.50
11647;DHT22;5880;52.342;9.662;2022-10-16T09:52:28;24.10;62.80
11647;DHT22;5880;52.342;9.662;2022-10-16T09:54:57;24.30;62.40
11647;DHT22;5880;52.342;9.662;2022-10-16T09:57:25;24.50;61.70
11647;DHT22;5880;52.342;9.662;2022-10-16T09:59:53;24.60;61.30
11647;DHT22;5880;52.342;9.662;2022-10-16T10:05:00;25.10;57.80
11647;DHT22;5880;52.342;9.662;2022-10-16T10:07:30;25.30;58.70
11647;DHT22;5880;52.342;9.662;2022-10-16T10:09:59;25.40;56.40
11647;DHT22;5880;52.342;9.662;2022-10-16T10:12:28;25.50;56.50
11647;DHT22;5880;52.342;9.662;2022-10-16T10:15:03;25.50;55.70
11647;DHT22;5880;52.342;9.662;2022-10-16T10:17:31;25.50;55.10
11647;DHT22;5880;52.342;9.662;2022-10-16T10:20:15;25.40;55.60
11647;DHT22;5880;52.342;9.662;2022-10-16T10:22:46;25.40;52.60
11647;DHT22;5880;52.342;9.662;2022-10-16T10:31:17;25.10;51.30
11647;DHT22;5880;52.342;9.662;2022-10-16T10:33:55;24.90;51.30
11647;DHT22;5880;52.342;9.662;2022-10-16T10:36:38;24.60;51.40
11647;DHT22;5880;52.342;9.662;2022-10-16T10:42:06;24.10;50.70
11647;DHT22;5880;52.342;9.662;2022-10-16T10:47:59;23.50;50.90
11647;DHT22;5880;52.342;9.662;2022-10-16T10:50:57;23.20;51.30
11647;DHT22;5880;52.342;9.662;2022-10-16T11:01:55;22.20;53.60
11647;DHT22;5880;52.342;9.662;2022-10-16T11:04:32;22.10;54.00
11647;DHT22;5880;52.342;9.662;2022-10-16T11:07:38;22.00;54.80
11647;DHT22;5880;52.342;9.662;2022-10-16T11:10:17;22.00;54.60
11647;DHT22;5880;52.342;9.662;2022-10-16T11:12:57;21.90;55.50
11647;DHT22;5880;52.342;9.662;2022-10-16T11:15:32;21.80;55.00
11647;DHT22;5880;52.342;9.662;2022-10-16T11:18:05;21.80;54.60
11647;DHT22;5880;52.342;9.662;2022-10-16T11:20:50;21.80;54.60
11647;DHT22;5880;52.342;9.662;2022-10-16T11:26:08;21.80;54.00
11647;DHT22;5880;52.342;9.662;2022-10-16T11:28:48;21.90;54.80
11647;DHT22;5880;52.342;9.662;2022-10-16T11:31:32;21.80;54.40
11647;DHT22;5880;52.342;9.662;2022-10-16T11:34:25;21.90;53.90
11647;DHT22;5880;52.342;9.662;2022-10-16T11:37:17;22.00;54.60
11647;DHT22;5880;52.342;9.662;2022-10-16T11:40:22;22.00;54.70
11647;DHT22;5880;52.342;9.662;2022-10-16T11:46:16;22.10;55.00
11647;DHT22;5880;52.342;9.662;2022-10-16T11:48:51;22.20;55.10
11647;DHT22;5880;52.342;9.662;2022-10-16T11:54:35;22.20;54.80
11647;DHT22;5880;52.342;9.662;2022-10-16T11:57:16;22.20;55.10
11647;DHT22;5880;52.342;9.662;2022-10-16T11:59:48;22.20;55.00
11647;DHT22;5880;52.342;9.662;2022-10-16T12:02:50;22.20;55.20
11647;DHT22;5880;52.342;9.662;2022-10-16T12:10:39;22.20;55.40
11647;DHT22;5880;52.342;9.662;2022-10-16T12:16:27;22.30;54.40
11647;DHT22;5880;52.342;9.662;2022-10-16T12:19:14;22.30;54.30
11647;DHT22;5880;52.342;9.662;2022-10-16T12:21:43;22.40;54.00
11647;DHT22;5880;52.342;9.662;2022-10-16T12:24:33;22.40;54.50
11647;DHT22;5880;52.342;9.662;2022-10-16T12:27:04;22.50;54.00
11647;DHT22;5880;52.342;9.662;2022-10-16T12:29:39;22.50;54.80
11647;DHT22;5880;52.342;9.662;2022-10-16T12:32:32;22.50;53.70
11647;DHT22;5880;52.342;9.662;2022-10-16T12:35:02;22.60;53.70
11647;DHT22;5880;52.342;9.662;2022-10-16T12:37:36;22.60;54.40
11647;DHT22;5880;52.342;9.662;2022-10-16T12:42:52;22.50;52.90
11647;DHT22;5880;52.342;9.662;2022-10-16T12:45:26;22.50;54.00
11647;DHT22;5880;52.342;9.662;2022-10-16T12:47:54;22.50;53.20
11647;DHT22;5880;52.342;9.662;2022-10-16T12:50:38;22.50;53.70
11647;DHT22;5880;52.342;9.662;2022-10-16T12:53:26;22.50;53.10
11647;DHT22;5880;52.342;9.662;2022-10-16T13:12:11;22.40;52.70
11647;DHT22;5880;52.342;9.662;2022-10-16T13:20:35;22.40;53.20
11647;DHT22;5880;52.342;9.662;2022-10-16T13:23:57;22.40;52.30
11647;DHT22;5880;52.342;9.662;2022-10-16T13:29:22;22.50;52.30
11647;DHT22;5880;52.342;9.662;2022-10-16T13:31:48;22.50;53.20
11647;DHT22;5880;52.342;9.662;2022-10-16T13:34:20;22.50;53.10
11647;DHT22;5880;52.342;9.662;2022-10-16T13:36:52;22.50;52.30
11647;DHT22;5880;52.342;9.662;2022-10-16T13:39:29;22.60;52.30
11647;DHT22;5880;52.342;9.662;2022-10-16T13:42:03;22.60;52.10
11647;DHT22;5880;52.342;9.662;2022-10-16T13:44:46;22.60;52.30
11647;DHT22;5880;52.342;9.662;2022-10-16T13:47:22;22.60;52.40
11647;DHT22;5880;52.342;9.662;2022-10-16T13:50:04;22.60;51.90
11647;DHT22;5880;52.342;9.662;2022-10-16T13:52:41;22.70;52.10
11647;DHT22;5880;52.342;9.662;2022-10-16T13:55:15;22.70;52.30
11647;DHT22;5880;52.342;9.662;2022-10-16T13:57:43;22.60;52.10
11647;DHT22;5880;52.342;9.662;2022-10-16T14:00:25;22.70;52.50
11647;DHT22;5880;52.342;9.662;2022-10-16T14:03:07;22.70;51.30
11647;DHT22;5880;52.342;9.662;2022-10-16T14:05:54;22.70;51.80
11647;DHT22;5880;52.342;9.662;2022-10-16T14:08:23;22.70;51.30
11647;DHT22;5880;52.342;9.662;2022-10-16T14:10:53;22.70;52.30
11647;DHT22;5880;52.342;9.662;2022-10-16T14:13:31;22.70;51.60
11647;DHT22;5880;52.342;9.662;2022-10-16T14:16:06;22.70;50.80
11647;DHT22;5880;52.342;9.662;2022-10-16T14:18:35;22.70;50.90
11647;DHT22;5880;52.342;9.662;2022-10-16T14:21:14;22.70;51.70
11647;DHT22;5880;52.342;9.662;2022-10-16T14:23:42;22.70;50.80
11647;DHT22;5880;52.342;9.662;2022-10-16T14:28:34;22.60;51.20
11647;DHT22;5880;52.342;9.662;2022-10-16T14:31:13;22.60;51.00
11647;DHT22;5880;52.342;9.662;2022-10-16T14:33:42;22.60;51.20
11647;DHT22;5880;52.342;9.662;2022-10-16T14:36:13;22.60;52.20
11647;DHT22;5880;52.342;9.662;2022-10-16T14:38:43;22.50;50.70
11647;DHT22;5880;52.342;9.662;2022-10-16T14:41:41;22.50;50.80
11647;DHT22;5880;52.342;9.662;2022-10-16T14:44:11;22.50;50.60
11647;DHT22;5880;52.342;9.662;2022-10-16T14:46:40;22.40;51.10
11647;DHT22;5880;52.342;9.662;2022-10-16T14:51:41;22.40;51.30
11647;DHT22;5880;52.342;9.662;2022-10-16T14:54:08;22.40;51.00
11647;DHT22;5880;52.342;9.662;2022-10-16T14:56:50;22.40;51.30
11647;DHT22;5880;52.342;9.662;2022-10-16T15:01:54;22.30;50.60
11647;DHT22;5880;52.342;9.662;2022-10-16T15:04:20;22.30;51.20
11647;DHT22;5880;52.342;9.662;2022-10-16T15:06:46;22.30;51.20
11647;DHT22;5880;52.342;9.662;2022-10-16T15:09:12;22.30;51.40
11647;DHT22;5880;52.342;9.662;2022-10-16T15:11:38;22.30;51.60
11647;DHT22;5880;52.342;9.662;2022-10-16T15:14:04;22.20;51.50
11647;DHT22;5880;52.342;9.662;2022-10-16T15:16:30;22.20;51.50
11647;DHT22;5880;52.342;9.662;2022-10-16T15:18:57;22.20;51.80
11647;DHT22;5880;52.342;9.662;2022-10-16T15:23:53;22.10;51.40
11647;DHT22;5880;52.342;9.662;2022-10-16T15:26:18;22.10;51.80
11647;DHT22;5880;52.342;9.662;2022-10-16T15:28:44;22.00;51.60
11647;DHT22;5880;52.342;9.662;2022-10-16T15:31:09;22.00;51.80
11647;DHT22;5880;52.342;9.662;2022-10-16T15:33:35;21.90;51.70
11647;DHT22;5880;52.342;9.662;2022-10-16T15:36:02;21.90;51.80
11647;DHT22;5880;52.342;9.662;2022-10-16T15:38:29;21.80;52.00
11647;DHT22;5880;52.342;9.662;2022-10-16T15:40:56;21.80;52.10
11647;DHT22;5880;52.342;9.662;2022-10-16T15:43:22;21.70;52.20
11647;DHT22;5880;52.342;9.662;2022-10-16T15:46:02;21.60;52.30
11647;DHT22;5880;52.342;9.662;2022-10-16T15:48:31;21.60;52.30
11647;DHT22;5880;52.342;9.662;2022-10-16T15:50:58;21.40;52.20
11647;DHT22;5880;52.342;9.662;2022-10-16T15:53:24;21.40;52.40
11647;DHT22;5880;52.342;9.662;2022-10-16T15:55:51;21.30;52.60
11647;DHT22;5880;52.342;9.662;2022-10-16T15:58:17;21.20;52.60
11647;DHT22;5880;52.342;9.662;2022-10-16T16:00:43;21.10;52.70
11647;DHT22;5880;52.342;9.662;2022-10-16T16:03:09;21.10;53.00
11647;DHT22;5880;52.342;9.662;2022-10-16T16:05:38;21.00;53.10
11647;DHT22;5880;52.342;9.662;2022-10-16T16:08:05;20.90;53.50
11647;DHT22;5880;52.342;9.662;2022-10-16T16:10:31;20.90;53.70
11647;DHT22;5880;52.342;9.662;2022-10-16T16:12:56;20.80;53.90
11647;DHT22;5880;52.342;9.662;2022-10-16T16:15:22;20.80;54.00
11647;DHT22;5880;52.342;9.662;2022-10-16T16:17:49;20.70;53.90
11647;DHT22;5880;52.342;9.662;2022-10-16T16:20:15;20.60;54.00
11647;DHT22;5880;52.342;9.662;2022-10-16T16:22:41;20.60;54.20
11647;DHT22;5880;52.342;9.662;2022-10-16T16:25:07;20.50;54.30
11647;DHT22;5880;52.342;9.662;2022-10-16T16:27:33;20.50;54.30
11647;DHT22;5880;52.342;9.662;2022-10-16T16:30:00;20.40;54.20
11647;DHT22;5880;52.342;9.662;2022-10-16T16:32:28;20.40;54.40
11647;DHT22;5880;52.342;9.662;2022-10-16T16:34:54;20.30;54.50
11647;DHT22;5880;52.342;9.662;2022-10-16T16:37:20;20.20;54.50
11647;DHT22;5880;52.342;9.662;2022-10-16T16:39:45;20.20;54.60
11647;DHT22;5880;52.342;9.662;2022-10-16T16:42:11;20.10;54.70
11647;DHT22;5880;52.342;9.662;2022-10-16T16:44:37;20.10;54.90
11647;DHT22;5880;52.342;9.662;2022-10-16T16:47:04;20.00;55.00
11647;DHT22;5880;52.342;9.662;2022-10-16T16:49:31;20.00;55.00
11647;DHT22;5880;52.342;9.662;2022-10-16T16:51:56;19.80;54.90
11647;DHT22;5880;52.342;9.662;2022-10-16T16:54:22;19.80;55.00
11647;DHT22;5880;52.342;9.662;2022-10-16T16:56:48;19.70;55.20
11647;DHT22;5880;52.342;9.662;2022-10-16T16:59:16;19.70;55.40
11647;DHT22;5880;52.342;9.662;2022-10-16T17:01:45;19.60;55.50
11647;DHT22;5880;52.342;9.662;2022-10-16T17:04:12;19.60;55.70
11647;DHT22;5880;52.342;9.662;2022-10-16T17:06:40;19.50;56.10
11647;DHT22;5880;52.342;9.662;2022-10-16T17:09:07;19.50;56.20
11647;DHT22;5880;52.342;9.662;2022-10-16T17:11:33;19.50;56.40
11647;DHT22;5880;52.342;9.662;2022-10-16T17:14:00;19.40;56.60
11647;DHT22;5880;52.342;9.662;2022-10-16T17:16:33;19.40;56.80
11647;DHT22;5880;52.342;9.662;2022-10-16T17:19:03;19.30;57.10
11647;DHT22;5880;52.342;9.662;2022-10-16T17:21:29;19.30;57.20
11647;DHT22;5880;52.342;9.662;2022-10-16T17:23:57;19.30;57.10
11647;DHT22;5880;52.342;9.662;2022-10-16T17:26:23;19.30;57.00
11647;DHT22;5880;52.342;9.662;2022-10-16T17:28:54;19.30;57.10
11647;DHT22;5880;52.342;9.662;2022-10-16T17:31:23;19.30;57.70
11647;DHT22;5880;52.342;9.662;2022-10-16T17:33:54;19.20;57.40
11647;DHT22;5880;52.342;9.662;2022-10-16T17:36:21;19.20;57.30
11647;DHT22;5880;52.342;9.662;2022-10-16T17:38:48;19.20;57.30
11647;DHT22;5880;52.342;9.662;2022-10-16T17:41:20;19.20;57.20
11647;DHT22;5880;52.342;9.662;2022-10-16T17:43:48;19.20;57.40
11647;DHT22;5880;52.342;9.662;2022-10-16T17:46:17;19.20;57.50
11647;DHT22;5880;52.342;9.662;2022-10-16T17:48:45;19.20;57.60
11647;DHT22;5880;52.342;9.662;2022-10-16T17:51:16;19.20;57.60